createdAt,value
2023-01-26T00:00:54.647Z, 33.09
2023-01-26T00:01:54.626Z, 33.08
2023-01-26T00:02:54.678Z, 33.09
2023-01-26T00:03:54.695Z, 33.04
2023-01-26T00:04:54.624Z, 33.05
2023-01-26T00:05:54.651Z, 33.03
2023-01-26T00:06:54.641Z, 33.01
2023-01-26T00:07:54.637Z, 33.02
2023-01-26T00:08:54.666Z, 32.99
2023-01-26T00:09:54.685Z, 32.93
2023-01-26T00:10:54.744Z, 32.92
2023-01-26T00:11:54.699Z, 32.91
2023-01-26T00:12:54.735Z, 32.94
2023-01-26T00:13:54.707Z, 32.94
2023-01-26T00:14:54.720Z, 32.85
2023-01-26T00:15:54.753Z, 32.88
2023-01-26T00:16:54.772Z, 32.86
2023-01-26T00:17:54.763Z, 32.80
2023-01-26T00:18:54.743Z, 32.77
2023-01-26T00:19:54.831Z, 32.77
2023-01-26T00:20:54.805Z, 32.78
2023-01-26T00:21:54.805Z, 32.74
2023-01-26T00:22:54.875Z, 32.75
2023-01-26T00:23:54.867Z, 32.74
2023-01-26T00:24:54.909Z, 32.74
2023-01-26T00:25:54.865Z, 32.70
2023-01-26T00:26:54.852Z, 32.69
2023-01-26T00:27:54.966Z, 32.69
2023-01-26T00:28:54.907Z, 32.64
2023-01-26T00:29:54.923Z, 32.62
2023-01-26T00:30:54.959Z, 32.65
2023-01-26T00:31:54.929Z, 32.62
2023-01-26T00:32:54.940Z, 32.62
2023-01-26T00:33:54.960Z, 32.59
2023-01-26T00:34:55.050Z, 32.60
2023-01-26T00:35:54.996Z, 32.60
2023-01-26T00:36:54.996Z, 32.58
2023-01-26T00:37:55.009Z, 32.55
2023-01-26T00:38:55.024Z, 32.54
2023-01-26T00:39:55.064Z, 32.53
2023-01-26T00:40:55.041Z, 32.49
2023-01-26T00:41:55.091Z, 32.50
2023-01-26T00:42:55.080Z, 32.45
2023-01-26T00:43:55.113Z, 32.44
2023-01-26T00:44:55.116Z, 32.42
2023-01-26T00:45:55.118Z, 32.38
2023-01-26T00:46:55.275Z, 32.38
2023-01-26T00:47:55.166Z, 32.39
2023-01-26T00:48:55.199Z, 32.31
2023-01-26T00:49:55.250Z, 32.31
2023-01-26T00:50:55.211Z, 32.30
2023-01-26T00:51:55.214Z, 32.29
2023-01-26T00:52:55.215Z, 32.28
2023-01-26T00:53:55.232Z, 32.29
2023-01-26T00:54:55.339Z, 32.31
2023-01-26T00:55:55.288Z, 32.31
2023-01-26T00:56:55.284Z, 32.29
2023-01-26T00:57:55.282Z, 32.35
2023-01-26T00:58:55.303Z, 32.28
2023-01-26T00:59:55.317Z, 32.26
2023-01-26T01:00:55.391Z, 32.25
2023-01-26T01:01:57.490Z, 32.23
2023-01-26T01:02:55.353Z, 32.19
2023-01-26T01:03:55.383Z, 32.11
2023-01-26T01:04:55.392Z, 32.13
2023-01-26T01:05:55.403Z, 32.15
2023-01-26T01:06:55.416Z, 32.16
2023-01-26T01:07:55.425Z, 32.15
2023-01-26T01:08:55.457Z, 32.15
2023-01-26T01:09:55.476Z, 32.10
2023-01-26T01:10:55.481Z, 32.10
2023-01-26T01:11:55.565Z, 32.08
2023-01-26T01:12:55.538Z, 32.06
2023-01-26T01:13:55.557Z, 32.06
2023-01-26T01:14:55.602Z, 32.04
2023-01-26T01:15:55.638Z, 32.04
2023-01-26T01:16:55.597Z, 32.04
2023-01-26T01:17:55.622Z, 32.02
2023-01-26T01:18:55.592Z, 31.99
2023-01-26T01:19:55.686Z, 31.97
2023-01-26T01:20:55.635Z, 31.98
2023-01-26T01:21:55.644Z, 31.98
2023-01-26T01:22:55.643Z, 31.98
2023-01-26T01:23:55.677Z, 31.91
2023-01-26T01:24:55.754Z, 31.92
2023-01-26T01:25:55.713Z, 31.92
2023-01-26T01:26:55.759Z, 31.86
2023-01-26T01:27:55.746Z, 31.86
2023-01-26T01:28:55.792Z, 31.85
2023-01-26T01:29:55.779Z, 31.81
2023-01-26T01:30:55.855Z, 31.79
2023-01-26T01:31:55.828Z, 31.77
2023-01-26T01:32:55.861Z, 31.74
2023-01-26T01:33:55.838Z, 31.74
2023-01-26T01:34:55.839Z, 31.71
2023-01-26T01:35:55.857Z, 31.70
2023-01-26T01:36:55.856Z, 31.71
2023-01-26T01:37:55.919Z, 31.70
2023-01-26T01:38:55.887Z, 31.67
2023-01-26T01:39:55.969Z, 31.65
2023-01-26T01:40:55.938Z, 31.68
2023-01-26T01:41:55.937Z, 31.65
2023-01-26T01:42:55.945Z, 31.65
2023-01-26T01:43:55.947Z, 31.63
2023-01-26T01:44:55.952Z, 31.61
2023-01-26T01:45:56.030Z, 31.61
2023-01-26T01:46:56.037Z, 31.60
2023-01-26T01:47:56.059Z, 31.58
2023-01-26T01:48:56.042Z, 31.53
2023-01-26T01:49:56.031Z, 31.56
2023-01-26T01:50:56.135Z, 31.58
2023-01-26T01:51:56.083Z, 31.58
2023-01-26T01:52:56.153Z, 31.53
2023-01-26T01:53:56.144Z, 31.49
2023-01-26T01:54:56.117Z, 31.51
2023-01-26T01:55:56.120Z, 31.51
2023-01-26T01:56:56.118Z, 31.47
2023-01-26T01:57:56.198Z, 31.45
2023-01-26T01:58:56.178Z, 31.46
2023-01-26T01:59:56.173Z, 31.44
2023-01-26T02:00:56.173Z, 31.42
2023-01-26T02:01:56.262Z, 31.41
2023-01-26T02:02:56.186Z, 31.37
2023-01-26T02:03:56.203Z, 31.36
2023-01-26T02:04:56.284Z, 31.35
2023-01-26T02:05:56.284Z, 31.39
2023-01-26T02:06:56.272Z, 31.36
2023-01-26T02:07:56.275Z, 31.34
2023-01-26T02:08:56.275Z, 31.30
2023-01-26T02:09:56.367Z, 31.25
2023-01-26T02:10:56.336Z, 31.25
2023-01-26T02:11:56.378Z, 31.24
2023-01-26T02:12:56.363Z, 31.24
2023-01-26T02:13:56.355Z, 31.22
2023-01-26T02:14:56.354Z, 31.21
2023-01-26T02:15:56.403Z, 31.22
2023-01-26T02:16:57.623Z, 31.18
2023-01-26T02:17:56.431Z, 31.16
2023-01-26T02:18:56.467Z, 31.16
2023-01-26T02:19:56.447Z, 31.12
2023-01-26T02:20:56.519Z, 31.10
2023-01-26T02:21:56.487Z, 31.12
2023-01-26T02:22:56.520Z, 31.10
2023-01-26T02:23:56.550Z, 31.11
2023-01-26T02:24:56.498Z, 31.14
2023-01-26T02:25:56.527Z, 31.11
2023-01-26T02:26:56.512Z, 31.08
2023-01-26T02:27:56.540Z, 31.05
2023-01-26T02:28:56.583Z, 31.02
2023-01-26T02:29:56.566Z, 31.03
2023-01-26T02:30:56.616Z, 31.02
2023-01-26T02:31:56.643Z, 31.02
2023-01-26T02:32:56.610Z, 31.00
2023-01-26T02:33:56.697Z, 30.98
2023-01-26T02:34:56.738Z, 30.93
2023-01-26T02:35:56.686Z, 30.91
2023-01-26T02:36:56.669Z, 30.94
2023-01-26T02:37:56.678Z, 30.90
2023-01-26T02:38:56.695Z, 30.92
2023-01-26T02:39:56.714Z, 30.89
2023-01-26T02:40:56.713Z, 30.91
2023-01-26T02:41:56.715Z, 30.91
2023-01-26T02:42:56.740Z, 30.87
2023-01-26T02:43:56.758Z, 30.87
2023-01-26T02:44:56.789Z, 30.84
2023-01-26T02:45:56.932Z, 30.85
2023-01-26T02:46:56.821Z, 30.86
2023-01-26T02:47:56.875Z, 30.79
2023-01-26T02:48:56.874Z, 30.86
2023-01-26T02:49:56.854Z, 30.86
2023-01-26T02:50:56.875Z, 30.85
2023-01-26T02:51:56.871Z, 30.77
2023-01-26T02:52:56.960Z, 30.80
2023-01-26T02:53:56.936Z, 30.81
2023-01-26T02:54:56.980Z, 30.81
2023-01-26T02:55:56.974Z, 30.77
2023-01-26T02:56:56.963Z, 30.75
2023-01-26T02:57:57.010Z, 30.74
2023-01-26T02:58:56.975Z, 30.71
2023-01-26T02:59:57.071Z, 30.72
2023-01-26T03:00:57.179Z, 30.66
2023-01-26T03:01:57.097Z, 30.67
2023-01-26T03:02:57.094Z, 30.68
2023-01-26T03:03:57.061Z, 30.70
2023-01-26T03:04:57.068Z, 30.69
2023-01-26T03:05:57.083Z, 30.64
2023-01-26T03:06:57.085Z, 30.62
2023-01-26T03:07:57.160Z, 30.60
2023-01-26T03:08:57.148Z, 30.57
2023-01-26T03:09:57.176Z, 30.58
2023-01-26T03:10:57.158Z, 30.55
2023-01-26T03:11:57.190Z, 30.52
2023-01-26T03:12:57.201Z, 30.52
2023-01-26T03:13:57.183Z, 30.51
2023-01-26T03:14:57.186Z, 30.49
2023-01-26T03:15:57.221Z, 30.51
2023-01-26T03:16:57.251Z, 30.49
2023-01-26T03:17:57.242Z, 30.47
2023-01-26T03:18:57.324Z, 30.45
2023-01-26T03:19:57.310Z, 30.44
2023-01-26T03:20:57.367Z, 30.44
2023-01-26T03:21:57.326Z, 30.43
2023-01-26T03:22:57.380Z, 30.43
2023-01-26T03:23:57.399Z, 30.44
2023-01-26T03:24:57.362Z, 30.40
2023-01-26T03:25:57.362Z, 30.35
2023-01-26T03:26:57.374Z, 30.37
2023-01-26T03:27:57.422Z, 30.42
2023-01-26T03:28:57.401Z, 30.39
2023-01-26T03:29:57.475Z, 30.37
2023-01-26T03:30:57.455Z, 30.38
2023-01-26T03:31:57.705Z, 30.36
2023-01-26T03:32:57.456Z, 30.35
2023-01-26T03:33:57.488Z, 30.33
2023-01-26T03:34:57.498Z, 30.34
2023-01-26T03:35:57.500Z, 30.33
2023-01-26T03:36:57.520Z, 30.29
2023-01-26T03:37:57.528Z, 30.28
2023-01-26T03:38:57.618Z, 30.29
2023-01-26T03:39:57.588Z, 30.28
2023-01-26T03:40:57.594Z, 30.28
2023-01-26T03:41:57.591Z, 30.24
2023-01-26T03:42:57.591Z, 30.21
2023-01-26T03:43:57.652Z, 30.21
2023-01-26T03:44:57.630Z, 30.22
2023-01-26T03:45:57.701Z, 30.22
2023-01-26T03:46:57.741Z, 30.22
2023-01-26T03:47:57.781Z, 30.17
2023-01-26T03:48:57.701Z, 30.17
2023-01-26T03:49:57.701Z, 30.22
2023-01-26T03:50:57.710Z, 30.20
2023-01-26T03:51:57.719Z, 30.20
2023-01-26T03:52:57.744Z, 30.16
2023-01-26T03:53:57.736Z, 30.14
2023-01-26T03:54:57.824Z, 30.10
2023-01-26T03:55:57.789Z, 30.12
2023-01-26T03:56:57.792Z, 30.16
2023-01-26T03:57:57.867Z, 30.14
2023-01-26T03:58:57.836Z, 30.08
2023-01-26T03:59:57.829Z, 30.07
2023-01-26T04:00:57.893Z, 30.05
2023-01-26T04:01:57.975Z, 30.02
2023-01-26T04:02:57.937Z, 29.99
2023-01-26T04:03:57.894Z, 30.03
2023-01-26T04:04:58.025Z, 30.04
2023-01-26T04:06:15.486Z, 30.05
2023-01-26T04:06:58.004Z, 30.02
2023-01-26T04:07:58.002Z, 30.01
2023-01-26T04:08:58.005Z, 30.02
2023-01-26T04:09:57.997Z, 29.99
2023-01-26T04:10:58.022Z, 29.95
2023-01-26T04:11:58.018Z, 29.97
2023-01-26T04:12:58.086Z, 29.97
2023-01-26T04:13:58.046Z, 29.93
2023-01-26T04:14:58.052Z, 29.92
2023-01-26T04:15:58.053Z, 29.90
2023-01-26T04:16:58.066Z, 29.90
2023-01-26T04:17:58.084Z, 29.92
2023-01-26T04:18:58.119Z, 29.88
2023-01-26T04:19:58.171Z, 29.87
2023-01-26T04:20:58.130Z, 29.84
2023-01-26T04:21:58.208Z, 29.84
2023-01-26T04:22:58.186Z, 29.83
2023-01-26T04:23:58.266Z, 29.82
2023-01-26T04:24:58.184Z, 29.78
2023-01-26T04:25:58.194Z, 29.81
2023-01-26T04:26:58.195Z, 29.83
2023-01-26T04:27:58.231Z, 29.85
2023-01-26T04:28:58.291Z, 29.86
2023-01-26T04:29:58.290Z, 29.79
2023-01-26T04:30:58.290Z, 29.92
2023-01-26T04:31:58.271Z, 31.22
2023-01-26T04:32:58.276Z, 31.63
2023-01-26T04:33:58.378Z, 35.55
2023-01-26T04:34:58.348Z, 40.64
2023-01-26T04:35:58.340Z, 44.89
2023-01-26T04:36:58.329Z, 46.03
2023-01-26T04:37:58.347Z, 43.40
2023-01-26T04:38:58.364Z, 39.36
2023-01-26T04:39:58.384Z, 35.58
2023-01-26T04:40:58.399Z, 30.67
2023-01-26T04:41:58.417Z, 26.75
2023-01-26T04:42:58.455Z, 24.22
2023-01-26T04:43:58.457Z, 26.90
2023-01-26T04:44:58.510Z, 31.36
2023-01-26T04:45:58.554Z, 34.79
2023-01-26T04:46:58.540Z, 36.87
2023-01-26T04:47:58.520Z, 38.25
2023-01-26T04:48:58.512Z, 38.89
2023-01-26T04:49:58.508Z, 39.66
2023-01-26T04:50:58.531Z, 40.35
2023-01-26T04:51:58.606Z, 41.09
2023-01-26T04:52:58.577Z, 41.61
2023-01-26T04:53:58.592Z, 42.13
2023-01-26T04:54:58.579Z, 42.69
2023-01-26T04:55:58.587Z, 43.31
2023-01-26T04:56:58.608Z, 43.92
2023-01-26T04:57:58.619Z, 44.73
2023-01-26T04:58:58.706Z, 45.59
2023-01-26T04:59:58.678Z, 46.22
2023-01-26T05:00:58.748Z, 46.85
2023-01-26T05:01:58.692Z, 49.11
2023-01-26T05:02:58.698Z, 50.35
2023-01-26T05:03:58.716Z, 51.22
2023-01-26T05:04:58.705Z, 53.50
2023-01-26T05:05:58.798Z, 56.38
2023-01-26T05:06:58.767Z, 59.56
2023-01-26T05:07:58.844Z, 68.33
2023-01-26T05:08:58.829Z, 57.59
2023-01-26T05:09:58.813Z, 52.19
2023-01-26T05:10:58.813Z, 53.46
2023-01-26T05:11:58.805Z, 54.47
2023-01-26T05:12:58.874Z, 56.75
2023-01-26T05:13:58.851Z, 60.02
2023-01-26T05:14:58.899Z, 68.62
2023-01-26T05:15:58.865Z, 55.80
2023-01-26T05:16:58.880Z, 53.58
2023-01-26T05:17:58.905Z, 54.90
2023-01-26T05:18:58.895Z, 56.70
2023-01-26T05:19:58.981Z, 59.56
2023-01-26T05:20:58.960Z, 66.28
2023-01-26T05:21:58.951Z, 60.21
2023-01-26T05:22:58.948Z, 53.21
2023-01-26T05:23:59.004Z, 54.82
2023-01-26T05:24:58.983Z, 56.20
2023-01-26T05:25:59.028Z, 58.34
2023-01-26T05:26:59.076Z, 61.02
2023-01-26T05:27:59.044Z, 67.58
2023-01-26T05:28:59.048Z, 54.33
2023-01-26T05:29:59.130Z, 53.78
2023-01-26T05:30:59.156Z, 55.18
2023-01-26T05:31:59.200Z, 57.00
2023-01-26T05:32:59.082Z, 59.25
2023-01-26T05:33:59.100Z, 60.63
2023-01-26T05:34:59.121Z, 61.90
2023-01-26T05:35:59.126Z, 64.47
2023-01-26T05:36:59.134Z, 65.03
2023-01-26T05:37:59.152Z, 62.93
2023-01-26T05:38:59.168Z, 60.22
2023-01-26T05:39:59.185Z, 58.16
2023-01-26T05:40:59.191Z, 56.16
2023-01-26T05:41:59.268Z, 54.01
2023-01-26T05:42:59.253Z, 52.06
2023-01-26T05:43:59.275Z, 50.20
2023-01-26T05:44:59.239Z, 48.27
2023-01-26T05:45:59.319Z, 46.20
2023-01-26T05:46:59.307Z, 44.45
2023-01-26T05:47:59.280Z, 47.38
2023-01-26T05:48:59.340Z, 52.22
2023-01-26T05:49:59.321Z, 55.52
2023-01-26T05:50:59.405Z, 57.61
2023-01-26T05:51:59.379Z, 56.85
2023-01-26T05:52:59.424Z, 55.42
2023-01-26T05:53:59.402Z, 54.02
2023-01-26T05:54:59.404Z, 52.32
2023-01-26T05:55:59.408Z, 50.40
2023-01-26T05:56:59.411Z, 48.69
2023-01-26T05:57:59.422Z, 47.25
2023-01-26T05:58:59.420Z, 46.02
2023-01-26T05:59:59.501Z, 44.76
2023-01-26T06:00:59.474Z, 43.47
2023-01-26T06:01:59.610Z, 45.49
2023-01-26T06:02:59.516Z, 50.91
2023-01-26T06:03:59.613Z, 54.52
2023-01-26T06:04:59.555Z, 56.19
2023-01-26T06:05:59.568Z, 55.69
2023-01-26T06:06:59.554Z, 54.59
2023-01-26T06:07:59.571Z, 53.45
2023-01-26T06:08:59.561Z, 52.36
2023-01-26T06:09:59.576Z, 51.21
2023-01-26T06:10:59.650Z, 50.11
2023-01-26T06:11:59.628Z, 49.10
2023-01-26T06:12:59.682Z, 48.16
2023-01-26T06:13:59.666Z, 47.28
2023-01-26T06:14:59.659Z, 46.52
2023-01-26T06:15:59.663Z, 45.81
2023-01-26T06:16:59.699Z, 45.88
2023-01-26T06:17:59.697Z, 45.47
2023-01-26T06:18:59.693Z, 45.07
2023-01-26T06:19:59.777Z, 45.16
2023-01-26T06:20:59.755Z, 45.13
2023-01-26T06:21:59.760Z, 45.05
2023-01-26T06:22:59.739Z, 44.98
2023-01-26T06:23:59.782Z, 44.89
2023-01-26T06:24:59.752Z, 44.77
2023-01-26T06:25:59.777Z, 44.67
2023-01-26T06:26:59.778Z, 44.54
2023-01-26T06:27:59.789Z, 44.40
2023-01-26T06:28:59.873Z, 44.23
2023-01-26T06:29:59.848Z, 44.12
2023-01-26T06:30:59.963Z, 43.99
2023-01-26T06:31:59.873Z, 43.83
2023-01-26T06:33:00.369Z, 43.71
2023-01-26T06:33:59.900Z, 43.59
2023-01-26T06:34:59.870Z, 43.45
2023-01-26T06:35:59.964Z, 43.34
2023-01-26T06:36:59.939Z, 43.18
2023-01-26T06:37:59.967Z, 43.08
2023-01-26T06:39:00.971Z, 42.91
2023-01-26T06:39:59.967Z, 42.77
2023-01-26T06:40:59.968Z, 42.66
2023-01-26T06:41:59.957Z, 42.54
2023-01-26T06:43:00.038Z, 42.42
2023-01-26T06:44:00.023Z, 42.26
2023-01-26T06:45:00.101Z, 42.15
2023-01-26T06:46:00.045Z, 42.05
2023-01-26T06:47:00.037Z, 41.93
2023-01-26T06:48:00.060Z, 41.79
2023-01-26T06:49:00.039Z, 41.69
2023-01-26T06:50:00.191Z, 41.61
2023-01-26T06:51:00.105Z, 41.53
2023-01-26T06:52:00.127Z, 41.41
2023-01-26T06:53:00.147Z, 41.29
2023-01-26T06:54:00.129Z, 41.20
2023-01-26T06:55:00.149Z, 41.12
2023-01-26T06:56:00.159Z, 41.01
2023-01-26T06:57:00.174Z, 40.90
2023-01-26T06:58:00.166Z, 40.79
2023-01-26T06:59:00.157Z, 40.72
2023-01-26T07:00:00.258Z, 40.63
2023-01-26T07:01:00.314Z, 40.58
2023-01-26T07:02:00.289Z, 40.49
2023-01-26T07:03:00.264Z, 40.36
2023-01-26T07:04:00.252Z, 40.30
2023-01-26T07:05:00.324Z, 40.23
2023-01-26T07:06:00.287Z, 40.14
2023-01-26T07:07:00.350Z, 40.04
2023-01-26T07:08:00.332Z, 39.96
2023-01-26T07:09:00.337Z, 39.95
2023-01-26T07:10:00.335Z, 39.87
2023-01-26T07:11:00.404Z, 39.78
2023-01-26T07:12:00.355Z, 39.72
2023-01-26T07:13:00.372Z, 39.60
2023-01-26T07:14:00.361Z, 39.53
2023-01-26T07:15:00.373Z, 39.44
2023-01-26T07:16:00.411Z, 39.40
2023-01-26T07:17:00.401Z, 39.31
2023-01-26T07:18:00.436Z, 39.28
2023-01-26T07:19:00.433Z, 39.25
2023-01-26T07:20:00.494Z, 39.21
2023-01-26T07:21:00.475Z, 39.15
2023-01-26T07:22:00.490Z, 39.08
2023-01-26T07:23:00.479Z, 39.02
2023-01-26T07:24:00.543Z, 38.98
2023-01-26T07:25:00.585Z, 38.95
2023-01-26T07:26:00.561Z, 38.83
2023-01-26T07:27:00.558Z, 38.80
2023-01-26T07:28:00.568Z, 38.73
2023-01-26T07:29:00.549Z, 38.73
2023-01-26T07:30:00.639Z, 38.66
2023-01-26T07:31:00.651Z, 38.58
2023-01-26T07:32:00.763Z, 38.57
2023-01-26T07:33:00.642Z, 38.47
2023-01-26T07:34:00.655Z, 38.50
2023-01-26T07:35:00.637Z, 38.44
2023-01-26T07:36:00.662Z, 38.39
2023-01-26T07:37:00.651Z, 38.37
2023-01-26T07:38:00.661Z, 38.32
2023-01-26T07:39:00.669Z, 38.29
2023-01-26T07:40:00.680Z, 38.21
2023-01-26T07:41:00.754Z, 38.18
2023-01-26T07:42:00.722Z, 38.12
2023-01-26T07:43:00.789Z, 38.02
2023-01-26T07:44:00.824Z, 38.07
2023-01-26T07:45:00.780Z, 38.09
2023-01-26T07:46:00.787Z, 38.01
2023-01-26T07:47:00.816Z, 37.97
2023-01-26T07:48:00.800Z, 37.95
2023-01-26T07:49:00.797Z, 37.90
2023-01-26T07:50:00.801Z, 37.86
2023-01-26T07:51:00.827Z, 37.85
2023-01-26T07:52:01.971Z, 37.80
2023-01-26T07:53:00.840Z, 37.77
2023-01-26T07:54:00.852Z, 37.76
2023-01-26T07:55:00.896Z, 37.71
2023-01-26T07:56:00.891Z, 37.68
2023-01-26T07:57:00.886Z, 37.61
2023-01-26T07:58:00.962Z, 37.59
2023-01-26T07:59:03.572Z, 37.56
2023-01-26T08:00:00.973Z, 37.51
2023-01-26T08:01:00.970Z, 37.50
2023-01-26T08:02:01.080Z, 37.43
2023-01-26T08:03:01.017Z, 37.44
2023-01-26T08:04:01.001Z, 37.35
2023-01-26T08:05:01.011Z, 37.34
2023-01-26T08:06:01.005Z, 37.31
2023-01-26T08:07:01.007Z, 37.27
2023-01-26T08:08:01.019Z, 37.23
2023-01-26T08:09:01.058Z, 37.18
2023-01-26T08:10:01.043Z, 37.25
2023-01-26T08:11:01.119Z, 37.20
2023-01-26T08:12:01.112Z, 37.20
2023-01-26T08:13:01.103Z, 37.12
2023-01-26T08:14:01.111Z, 37.10
2023-01-26T08:15:01.116Z, 37.08
2023-01-26T08:16:01.123Z, 37.05
2023-01-26T08:17:01.132Z, 37.01
2023-01-26T08:18:01.222Z, 36.98
2023-01-26T08:19:01.196Z, 36.98
2023-01-26T08:20:01.224Z, 36.97
2023-01-26T08:21:01.198Z, 37.02
2023-01-26T08:22:01.197Z, 36.95
2023-01-26T08:23:01.224Z, 36.94
2023-01-26T08:24:01.290Z, 36.86
2023-01-26T08:25:01.274Z, 36.83
2023-01-26T08:26:01.346Z, 36.82
2023-01-26T08:27:01.257Z, 36.81
2023-01-26T08:28:01.255Z, 36.76
2023-01-26T08:29:01.271Z, 36.75
2023-01-26T08:30:01.330Z, 36.70
2023-01-26T08:31:01.319Z, 36.67
2023-01-26T08:32:01.393Z, 36.71
2023-01-26T08:33:01.328Z, 36.70
2023-01-26T08:34:01.331Z, 36.67
2023-01-26T08:35:01.323Z, 36.63
2023-01-26T08:36:01.331Z, 36.60
2023-01-26T08:37:01.335Z, 36.59
2023-01-26T08:38:01.341Z, 36.60
2023-01-26T08:39:01.349Z, 36.63
2023-01-26T08:40:01.361Z, 36.57
2023-01-26T08:41:01.439Z, 36.52
2023-01-26T08:42:01.417Z, 36.48
2023-01-26T08:43:01.451Z, 36.45
2023-01-26T08:44:01.448Z, 36.49
2023-01-26T08:45:01.436Z, 36.41
2023-01-26T08:46:01.519Z, 36.40
2023-01-26T08:47:01.436Z, 36.32
2023-01-26T08:48:01.450Z, 36.33
2023-01-26T08:49:01.531Z, 36.34
2023-01-26T08:50:01.540Z, 36.36
2023-01-26T08:51:01.550Z, 36.36
2023-01-26T08:52:01.524Z, 36.30
2023-01-26T08:53:01.531Z, 36.27
2023-01-26T08:54:01.579Z, 36.26
2023-01-26T08:55:01.518Z, 36.27
2023-01-26T08:56:01.543Z, 36.23
2023-01-26T08:57:01.537Z, 36.22
2023-01-26T08:58:01.559Z, 36.22
2023-01-26T08:59:01.559Z, 36.21
2023-01-26T09:00:01.586Z, 36.22
2023-01-26T09:01:01.651Z, 36.16
2023-01-26T09:02:01.741Z, 36.12
2023-01-26T09:03:01.746Z, 36.10
2023-01-26T09:04:01.630Z, 36.10
2023-01-26T09:05:01.630Z, 36.11
2023-01-26T09:06:01.621Z, 36.09
2023-01-26T09:07:01.659Z, 36.07
2023-01-26T09:08:01.644Z, 36.07
2023-01-26T09:09:01.661Z, 36.02
2023-01-26T09:10:01.670Z, 35.97
2023-01-26T09:11:01.674Z, 35.92
2023-01-26T09:12:01.724Z, 35.92
2023-01-26T09:13:01.851Z, 35.90
2023-01-26T09:14:01.717Z, 35.86
2023-01-26T09:15:01.765Z, 35.85
2023-01-26T09:16:01.726Z, 35.83
2023-01-26T09:17:01.747Z, 35.82
2023-01-26T09:18:01.776Z, 35.80
2023-01-26T09:19:01.755Z, 35.76
2023-01-26T09:20:01.781Z, 35.74
2023-01-26T09:21:01.777Z, 35.73
2023-01-26T09:22:01.788Z, 35.74
2023-01-26T09:23:01.918Z, 35.72
2023-01-26T09:24:01.828Z, 35.66
2023-01-26T09:25:01.905Z, 35.71
2023-01-26T09:26:01.847Z, 35.76
2023-01-26T09:27:01.901Z, 35.72
2023-01-26T09:28:02.929Z, 35.64
2023-01-26T09:29:01.882Z, 35.66
2023-01-26T09:30:01.925Z, 35.65
2023-01-26T09:31:01.978Z, 35.59
2023-01-26T09:32:01.926Z, 35.61
2023-01-26T09:33:01.944Z, 35.62
2023-01-26T09:34:02.002Z, 35.58
2023-01-26T09:35:01.953Z, 35.61
2023-01-26T09:36:02.009Z, 35.58
2023-01-26T09:37:01.971Z, 35.53
2023-01-26T09:38:01.984Z, 35.56
2023-01-26T09:39:01.987Z, 35.57
2023-01-26T09:40:01.982Z, 35.52
2023-01-26T09:41:02.058Z, 35.54
2023-01-26T09:42:02.008Z, 35.52
2023-01-26T09:43:02.081Z, 35.53
2023-01-26T09:44:02.078Z, 35.46
2023-01-26T09:45:02.112Z, 35.47
2023-01-26T09:46:02.165Z, 35.44
2023-01-26T09:47:02.079Z, 35.46
2023-01-26T09:48:02.076Z, 35.45
2023-01-26T09:49:02.095Z, 35.41
2023-01-26T09:50:02.088Z, 35.42
2023-01-26T09:51:02.120Z, 35.36
2023-01-26T09:52:02.107Z, 35.36
2023-01-26T09:53:02.110Z, 35.30
2023-01-26T09:54:02.183Z, 35.34
2023-01-26T09:55:02.174Z, 35.33
2023-01-26T09:56:02.222Z, 35.30
2023-01-26T09:57:02.222Z, 35.28
2023-01-26T09:58:02.209Z, 35.24
2023-01-26T09:59:02.218Z, 35.20
2023-01-26T10:00:02.197Z, 35.21
2023-01-26T10:01:02.337Z, 35.22
2023-01-26T10:02:02.274Z, 35.15
2023-01-26T10:03:02.450Z, 35.12
2023-01-26T10:04:02.318Z, 35.14
2023-01-26T10:05:02.341Z, 35.15
2023-01-26T10:06:02.312Z, 35.14
2023-01-26T10:07:03.400Z, 35.15
2023-01-26T10:08:02.313Z, 35.12
2023-01-26T10:09:02.348Z, 35.09
2023-01-26T10:10:02.343Z, 35.10
2023-01-26T10:11:02.346Z, 35.10
2023-01-26T10:12:02.363Z, 35.07
2023-01-26T10:13:02.392Z, 35.05
2023-01-26T10:14:02.492Z, 35.08
2023-01-26T10:15:02.482Z, 35.06
2023-01-26T10:16:02.534Z, 35.02
2023-01-26T10:17:02.451Z, 35.01
2023-01-26T10:18:02.477Z, 35.02
2023-01-26T10:19:02.548Z, 35.01
2023-01-26T10:20:02.492Z, 34.93
2023-01-26T10:21:02.579Z, 34.94
2023-01-26T10:22:02.604Z, 34.96
2023-01-26T10:23:02.563Z, 34.95
2023-01-26T10:24:02.584Z, 34.96
2023-01-26T10:25:02.575Z, 34.92
2023-01-26T10:26:02.645Z, 34.94
2023-01-26T10:27:02.616Z, 34.91
2023-01-26T10:28:02.664Z, 34.88
2023-01-26T10:29:02.640Z, 34.82
2023-01-26T10:30:02.635Z, 34.83
2023-01-26T10:31:02.748Z, 34.88
2023-01-26T10:32:02.663Z, 34.86
2023-01-26T10:33:02.741Z, 34.81
2023-01-26T10:34:02.705Z, 34.76
2023-01-26T10:35:02.768Z, 34.78
2023-01-26T10:36:02.758Z, 34.73
2023-01-26T10:37:02.771Z, 34.74
2023-01-26T10:38:02.760Z, 34.73
2023-01-26T10:39:02.804Z, 34.73
2023-01-26T10:40:02.793Z, 34.71
2023-01-26T10:41:02.839Z, 34.73
2023-01-26T10:42:02.823Z, 34.67
2023-01-26T10:43:02.827Z, 34.65
2023-01-26T10:44:02.838Z, 34.65
2023-01-26T10:45:02.841Z, 34.60
2023-01-26T10:46:02.931Z, 34.58
2023-01-26T10:47:02.896Z, 34.58
2023-01-26T10:48:02.932Z, 34.56
2023-01-26T10:49:02.916Z, 34.51
2023-01-26T10:50:02.923Z, 34.51
2023-01-26T10:51:02.928Z, 34.53
2023-01-26T10:52:02.953Z, 34.55
2023-01-26T10:53:03.065Z, 34.57
2023-01-26T10:54:03.015Z, 34.55
2023-01-26T10:55:03.087Z, 34.53
2023-01-26T10:56:03.053Z, 34.48
2023-01-26T10:57:03.069Z, 34.49
2023-01-26T10:58:03.055Z, 34.49
2023-01-26T10:59:03.084Z, 34.44
2023-01-26T11:00:03.139Z, 34.42
2023-01-26T11:01:03.105Z, 34.49
2023-01-26T11:02:03.155Z, 37.28
2023-01-26T11:03:03.196Z, 47.31
2023-01-26T11:04:03.225Z, 49.95
2023-01-26T11:05:03.174Z, 50.41
2023-01-26T11:06:03.168Z, 52.29
2023-01-26T11:07:03.175Z, 54.08
2023-01-26T11:08:03.222Z, 53.39
2023-01-26T11:09:03.265Z, 50.62
2023-01-26T11:10:03.242Z, 47.58
2023-01-26T11:11:03.294Z, 44.55
2023-01-26T11:12:03.273Z, 40.78
2023-01-26T11:13:03.298Z, 36.71
2023-01-26T11:14:03.275Z, 32.96
2023-01-26T11:15:03.348Z, 31.34
2023-01-26T11:16:03.323Z, 34.62
2023-01-26T11:17:03.318Z, 38.55
2023-01-26T11:18:03.312Z, 41.14
2023-01-26T11:19:03.331Z, 43.26
2023-01-26T11:20:03.403Z, 44.78
2023-01-26T11:21:03.404Z, 46.23
2023-01-26T11:22:03.377Z, 47.49
2023-01-26T11:23:03.368Z, 48.66
2023-01-26T11:24:03.419Z, 49.90
2023-01-26T11:25:03.465Z, 51.66
2023-01-26T11:26:03.444Z, 53.44
2023-01-26T11:27:03.447Z, 54.94
2023-01-26T11:28:03.451Z, 53.65
2023-01-26T11:29:03.442Z, 51.25
2023-01-26T11:30:03.478Z, 49.01
2023-01-26T11:31:03.599Z, 48.39
2023-01-26T11:32:03.573Z, 48.67
2023-01-26T11:33:03.563Z, 48.47
2023-01-26T11:34:03.555Z, 48.44
2023-01-26T11:35:03.607Z, 48.26
2023-01-26T11:36:03.586Z, 48.08
2023-01-26T11:37:03.615Z, 47.85
2023-01-26T11:38:03.605Z, 47.62
2023-01-26T11:39:03.606Z, 47.39
2023-01-26T11:40:03.621Z, 47.18
2023-01-26T11:41:03.630Z, 46.99
2023-01-26T11:42:03.677Z, 46.77
2023-01-26T11:43:03.671Z, 46.57
2023-01-26T11:44:03.756Z, 46.40
2023-01-26T11:45:03.730Z, 46.21
2023-01-26T11:46:03.816Z, 46.02
2023-01-26T11:47:03.724Z, 45.80
2023-01-26T11:48:03.730Z, 45.62
2023-01-26T11:49:03.823Z, 45.45
2023-01-26T11:50:03.803Z, 45.25
2023-01-26T11:51:05.669Z, 45.11
2023-01-26T11:52:03.814Z, 44.92
2023-01-26T11:53:03.861Z, 44.75
2023-01-26T11:54:03.851Z, 44.58
2023-01-26T11:55:03.849Z, 44.39
2023-01-26T11:56:03.916Z, 44.23
2023-01-26T11:57:03.876Z, 44.06
2023-01-26T11:58:03.954Z, 43.92
2023-01-26T11:59:03.924Z, 43.77
2023-01-26T12:00:03.956Z, 43.60
2023-01-26T12:01:03.941Z, 43.46
2023-01-26T12:02:04.020Z, 43.31
2023-01-26T12:03:03.999Z, 43.15
2023-01-26T12:04:03.936Z, 43.00
2023-01-26T12:05:04.040Z, 42.83
2023-01-26T12:06:04.006Z, 42.71
2023-01-26T12:07:04.047Z, 42.54
2023-01-26T12:08:04.038Z, 42.43
2023-01-26T12:09:04.027Z, 42.27
2023-01-26T12:10:04.091Z, 42.18
2023-01-26T12:11:04.082Z, 42.03
2023-01-26T12:12:04.120Z, 41.90
2023-01-26T12:13:04.077Z, 41.79
2023-01-26T12:14:04.159Z, 41.64
2023-01-26T12:15:05.950Z, 41.55
2023-01-26T12:16:04.150Z, 41.40
2023-01-26T12:17:17.119Z, 41.32
2023-01-26T12:18:04.142Z, 41.20
2023-01-26T12:19:10.978Z, 41.10
2023-01-26T12:20:04.206Z, 41.01
2023-01-26T12:21:04.197Z, 40.90
2023-01-26T12:22:04.315Z, 40.75
2023-01-26T12:23:04.206Z, 40.63
2023-01-26T12:24:04.313Z, 40.53
2023-01-26T12:25:19.073Z, 40.41
2023-01-26T12:26:04.328Z, 40.31
2023-01-26T12:27:04.295Z, 40.24
2023-01-26T12:28:04.367Z, 40.16
2023-01-26T12:29:04.337Z, 40.08